Narita International Airport

RJAA | NRT

Tokyo , Chiba , Japan

Thursday, October 24th, 2019 | 13:57

Weather

RJAA 240430Z 04013KT 9999 FEW030 BKN070 20/14 Q1022 NOSIG RMK 1CU030 7AC070 A3020

Charts

No Charts Available

Gates

168 Available

Runways

2 Available

Events

No events for this airport


New event